»·PEaware :: N605RF KTEX-KSBA

N605RF :: KTEX-KSBA

FLIGHT INFORMATION

Flight Status: Arrived
Operator: Privately registered:
United States
More flights under this callsign
Pilot: Skye D. (10623)
Aircraft: BOMBARDIER BD-100 CHALLENGER 300
(CL30)
More flights by this aircraft type
Origin: KTEX Telluride Regl
United States
Destination: KSBA Santa Barbara Mun
United States
More flights between these airports :: More routes between these airports
Route: +ETL DVC J146 LAS HEC PMD FIM KWANG
File this flight plan on PilotEdge
Remarks:
Altitude:
(Current/Filed)
43,000ft
Speed:
(Current/Filed)
465kts
Departed: 24-Nov-17 11:54 AM
Arrived: 24-Nov-17 01:45 PM
Distance/Time
Traveled:
615nm/1:51
Distance/Time
To Go:
Arrived

Flight Plot

Page will automatically refresh every two minutes.

Flight plan parsing failed; only flown route is shown


Map Options




Map Legend


Flown Route
Filed Route
Departure Airport
Arrival Airport
Navaid (VOR, NDB)
Fix

Horizontal Profiles

Position Reports

Time Latitude Longitude Heading Altitude Ground
Speed
24-Nov-17 11:38 37.953928 -107.902165 92 9076ft 0kts
24-Nov-17 11:39 37.953928 -107.902165 92 9076ft 0kts
24-Nov-17 11:40 37.953928 -107.902165 92 9076ft 0kts
24-Nov-17 11:41 37.953928 -107.902165 92 9076ft 0kts
24-Nov-17 11:42 37.953928 -107.902165 92 9076ft 0kts
24-Nov-17 11:43 37.953928 -107.902165 92 9076ft 0kts
24-Nov-17 11:44 37.953928 -107.902165 92 9076ft 0kts
24-Nov-17 11:45 37.953928 -107.902165 92 9076ft 0kts
24-Nov-17 11:46 37.953928 -107.902165 92 9076ft 0kts
24-Nov-17 11:47 37.953928 -107.902165 92 9076ft 0kts
24-Nov-17 11:49 37.953928 -107.902165 92 9076ft 0kts
24-Nov-17 11:50 37.953928 -107.902165 92 9076ft 0kts
24-Nov-17 11:51 37.953928 -107.902165 92 9076ft 0kts
24-Nov-17 11:52 37.953928 -107.902165 92 9076ft 0kts
24-Nov-17 11:53 37.953928 -107.902165 92 9076ft 0kts
24-Nov-17 11:54 37.953928 -107.902165 92 9076ft 0kts
24-Nov-17 11:55 37.953281 -107.900653 119 9076ft 9kts
24-Nov-17 11:56 37.952507 -107.897096 104 9076ft 4kts
24-Nov-17 11:57 37.952369 -107.896688 128 9076ft 2kts
24-Nov-17 11:58 37.951365 -107.897129 285 9076ft 0kts
24-Nov-17 11:59 37.956735 -107.922978 283 9621ft 144kts
24-Nov-17 12:00 37.966467 -107.971190 281 12211ft 164kts
24-Nov-17 12:01 37.979409 -108.041197 283 14153ft 261kts
24-Nov-17 12:02 38.001318 -108.138519 289 16775ft 329kts
24-Nov-17 12:03 38.031161 -108.242425 276 20642ft 336kts
24-Nov-17 12:04 38.003364 -108.356489 255 23219ft 356kts
24-Nov-17 12:05 37.966459 -108.471242 254 23237ft 358kts
24-Nov-17 12:06 37.928421 -108.583979 253 23235ft 358kts
24-Nov-17 12:07 37.890346 -108.695795 253 23217ft 359kts
24-Nov-17 12:08 37.850497 -108.812520 253 24082ft 368kts
24-Nov-17 12:09 37.810006 -108.930961 258 26717ft 372kts
24-Nov-17 12:10 37.778509 -109.055515 260 28864ft 380kts
24-Nov-17 12:11 37.746464 -109.184216 260 30647ft 390kts
24-Nov-17 12:12 37.713867 -109.315179 259 32117ft 400kts
24-Nov-17 12:13 37.681396 -109.444863 260 34114ft 395kts
24-Nov-17 12:14 37.648842 -109.574368 260 36063ft 391kts
24-Nov-17 12:15 37.616622 -109.703179 260 37817ft 390kts
24-Nov-17 12:16 37.584233 -109.832625 259 39590ft 390kts
24-Nov-17 12:17 37.551076 -109.963017 258 41029ft 393kts
24-Nov-17 12:18 37.517464 -110.094129 258 42339ft 396kts
24-Nov-17 12:19 37.483478 -110.225936 257 43193ft 401kts
24-Nov-17 12:20 37.448885 -110.359308 257 43196ft 402kts
24-Nov-17 12:21 37.414279 -110.492044 257 43194ft 401kts
24-Nov-17 12:22 37.379411 -110.625136 257 43108ft 402kts
24-Nov-17 12:23 37.345448 -110.756201 257 43114ft 401kts
24-Nov-17 12:24 37.310507 -110.889160 256 43112ft 400kts
24-Nov-17 12:25 37.275736 -111.020082 256 43110ft 400kts
24-Nov-17 12:26 37.240583 -111.151640 256 43106ft 399kts
24-Nov-17 12:27 37.204302 -111.282675 255 43107ft 398kts
24-Nov-17 12:28 37.168200 -111.413383 256 43107ft 396kts
24-Nov-17 12:29 37.132596 -111.543762 256 43103ft 395kts
24-Nov-17 12:30 37.097636 -111.671847 256 43114ft 393kts
24-Nov-17 12:31 37.062918 -111.800653 256 43115ft 394kts
24-Nov-17 12:32 37.027988 -111.927849 255 43113ft 394kts
24-Nov-17 12:33 36.992242 -112.056990 255 43111ft 395kts
24-Nov-17 12:34 36.956424 -112.185671 255 43109ft 394kts
24-Nov-17 12:35 36.920311 -112.314785 255 43150ft 393kts
24-Nov-17 12:36 36.884580 -112.440030 255 43147ft 392kts
24-Nov-17 12:37 36.848247 -112.567684 255 43145ft 391kts
24-Nov-17 12:38 36.812602 -112.694043 255 43158ft 389kts
24-Nov-17 12:39 36.776838 -112.821304 255 43157ft 390kts
24-Nov-17 12:40 36.740506 -112.948724 255 43151ft 390kts
24-Nov-17 12:41 36.703996 -113.075862 254 43155ft 394kts
24-Nov-17 12:42 36.666716 -113.205003 254 43153ft 399kts
24-Nov-17 12:43 36.628882 -113.335428 254 43151ft 402kts
24-Nov-17 12:44 36.590183 -113.465938 254 43094ft 404kts
24-Nov-17 12:45 36.551662 -113.596752 254 43092ft 404kts
24-Nov-17 12:46 36.513730 -113.726855 254 43105ft 405kts
24-Nov-17 12:47 36.475086 -113.858513 253 43103ft 407kts
24-Nov-17 12:48 36.435984 -113.990201 253 43101ft 409kts
24-Nov-17 12:49 36.396484 -114.122425 253 43047ft 411kts
24-Nov-17 12:50 36.356643 -114.255111 253 43042ft 411kts
24-Nov-17 12:51 36.316810 -114.387145 253 43041ft 408kts
24-Nov-17 12:52 36.277095 -114.518164 253 43038ft 405kts
24-Nov-17 12:53 36.237908 -114.646885 253 43040ft 402kts
24-Nov-17 12:54 36.199915 -114.773134 253 43051ft 401kts
24-Nov-17 12:55 36.160173 -114.900851 252 43047ft 400kts
24-Nov-17 12:56 36.120616 -115.028266 252 43046ft 398kts
24-Nov-17 12:57 36.076726 -115.152588 239 43053ft 404kts
24-Nov-17 12:58 35.993291 -115.248170 227 43079ft 412kts
24-Nov-17 12:59 35.906512 -115.338610 227 43076ft 411kts
24-Nov-17 13:00 35.819803 -115.428132 227 43075ft 409kts
24-Nov-17 13:01 35.732729 -115.517650 226 43073ft 410kts
24-Nov-17 13:02 35.645262 -115.607253 226 43074ft 410kts
24-Nov-17 13:03 35.558948 -115.695982 226 43086ft 411kts
24-Nov-17 13:04 35.485854 -115.770954 225 43081ft 414kts
24-Nov-17 13:05 35.382494 -115.876083 225 43048ft 417kts
24-Nov-17 13:06 35.308161 -115.951387 225 43047ft 419kts
24-Nov-17 13:07 35.203718 -116.056855 224 43045ft 421kts
24-Nov-17 13:08 35.128826 -116.132217 224 43044ft 422kts
24-Nov-17 13:09 35.023584 -116.237832 224 43043ft 424kts
24-Nov-17 13:10 34.948379 -116.313090 224 43042ft 425kts
24-Nov-17 13:11 34.861369 -116.399927 224 43004ft 427kts
24-Nov-17 13:12 34.799916 -116.514502 258 42820ft 405kts
24-Nov-17 13:13 34.780610 -116.648284 262 41674ft 405kts
24-Nov-17 13:14 34.766972 -116.776759 263 40614ft 405kts
24-Nov-17 13:15 34.753386 -116.910607 263 39554ft 405kts
24-Nov-17 13:16 34.739625 -117.046350 262 38131ft 411kts
24-Nov-17 13:17 34.725693 -117.182470 263 36728ft 411kts
24-Nov-17 13:18 34.711453 -117.320287 263 34900ft 415kts
24-Nov-17 13:19 34.697223 -117.456411 263 32582ft 422kts
24-Nov-17 13:20 34.682742 -117.593491 263 29828ft 426kts
24-Nov-17 13:21 34.669724 -117.718525 263 27955ft 408kts
24-Nov-17 13:22 34.656390 -117.845328 263 26333ft 398kts
24-Nov-17 13:23 34.642771 -117.971518 263 24124ft 380kts
24-Nov-17 13:24 34.625182 -118.083422 249 24060ft 360kts
24-Nov-17 13:25 34.590914 -118.185785 250 23126ft 348kts
24-Nov-17 13:26 34.556303 -118.289402 250 21552ft 340kts
24-Nov-17 13:27 34.522600 -118.390052 250 19801ft 332kts
24-Nov-17 13:28 34.489054 -118.489967 250 17950ft 324kts
24-Nov-17 13:29 34.456524 -118.586607 250 15976ft 323kts
24-Nov-17 13:30 34.424372 -118.682313 250 14289ft 321kts
24-Nov-17 13:31 34.392048 -118.779007 249 13995ft 311kts
24-Nov-17 13:32 34.361706 -118.868730 250 13988ft 291kts
24-Nov-17 13:33 34.352091 -118.958492 265 12871ft 284kts
24-Nov-17 13:34 34.345117 -119.045484 265 10296ft 280kts
24-Nov-17 13:35 34.338624 -119.129955 265 8987ft 260kts
24-Nov-17 13:36 34.332855 -119.205826 265 8994ft 241kts
24-Nov-17 13:37 34.327446 -119.276716 266 7994ft 223kts
24-Nov-17 13:38 34.322176 -119.345943 265 6453ft 217kts
24-Nov-17 13:39 34.317448 -119.407470 265 5973ft 174kts
24-Nov-17 13:40 34.313644 -119.464527 281 4541ft 174kts
24-Nov-17 13:41 34.332018 -119.509039 295 3448ft 155kts
24-Nov-17 13:42 34.349014 -119.551476 293 2676ft 141kts
24-Nov-17 13:43 34.363552 -119.589875 291 2090ft 156kts
24-Nov-17 13:44 34.379225 -119.632981 290 1797ft 151kts
24-Nov-17 13:45 34.393200 -119.674769 285 1769ft 156kts
24-Nov-17 13:46 34.408228 -119.714582 294 1906ft 162kts
24-Nov-17 13:47 34.426708 -119.756153 292 1900ft 162kts
24-Nov-17 13:48 34.428801 -119.800179 263 650ft 157kts
24-Nov-17 13:49 34.427703 -119.842279 268 20ft 115kts
24-Nov-17 13:50 34.426779 -119.851684 166 20ft 8kts
24-Nov-17 13:51 34.426471 -119.846997 88 20ft 14kts
24-Nov-17 13:52 34.426635 -119.840587 89 20ft 22kts
24-Nov-17 13:53 34.424740 -119.837743 166 20ft 9kts
24-Nov-17 13:54 34.422672 -119.836413 82 20ft 5kts
24-Nov-17 13:55 34.422830 -119.836218 344 20ft 0kts

Navigation Log

Ident Type
Flight plan parsing failed, navigation log unavailable